Time;durP1;ratioP1;P1;durP2;ratioP2;P2;SDS_P1;SDS_P2;PMS_P1;PMS_P2;Temp;Humidity;BMP_temperature;BMP_pressure;BME280_temperature;BME280_humidity;BME280_pressure;Samples;Min_cycle;Max_cycle;Signal;HPM_P1;HPM_P2
2024/01/30 06:00:41;;;;;;;15.20;8.07;;;2.40;85.50;;;;;;4867150;23;20025;-77
2024/01/30 06:02:42;;;;;;;;;;;2.40;85.50;;;;;;4069071;29;20434;-78
2024/01/30 06:04:44;;;;;;;13.60;8.15;;;2.40;85.30;;;;;;4070917;29;19979;-79
2024/01/30 06:06:46;;;;;;;34.03;17.10;;;2.30;85.10;;;;;;4070739;29;20558;-79
2024/01/30 06:08:47;;;;;;;19.30;10.38;;;2.30;85.00;;;;;;4070769;29;20048;-79
2024/01/30 06:10:49;;;;;;;14.38;8.13;;;2.30;84.90;;;;;;4070313;29;20052;-79
2024/01/30 06:12:51;;;;;;;15.52;8.75;;;2.30;84.70;;;;;;4070289;29;20051;-78
2024/01/30 06:14:54;;;;;;;14.18;8.68;;;2.30;84.90;;;;;;4070519;29;20051;-78
2024/01/30 06:16:57;;;;;;;14.13;8.65;;;2.30;84.90;;;;;;4070202;29;20071;-78
2024/01/30 06:19:00;;;;;;;13.80;8.20;;;2.30;85.10;;;;;;4070645;29;20103;-80
2024/01/30 06:21:00;;;;;;;12.30;7.95;;;2.30;85.20;;;;;;4070394;29;20068;-78
2024/01/30 06:23:02;;;;;;;13.82;7.70;;;2.30;85.20;;;;;;4070124;29;20056;-78
2024/01/30 06:25:05;;;;;;;15.52;8.48;;;2.30;85.20;;;;;;4070479;29;20096;-79
2024/01/30 06:27:07;;;;;;;15.25;8.27;;;2.30;85.40;;;;;;4069969;29;20056;-78
2024/01/30 06:29:09;;;;;;;12.10;7.82;;;2.30;85.30;;;;;;4070274;29;20304;-78
2024/01/30 06:31:11;;;;;;;12.60;7.45;;;2.30;85.00;;;;;;4070597;29;20052;-79
2024/01/30 06:33:14;;;;;;;12.32;7.88;;;2.30;85.00;;;;;;4069941;29;20051;-76
2024/01/30 06:35:17;;;;;;;14.32;8.30;;;2.30;84.70;;;;;;4070335;29;20044;-78
2024/01/30 06:37:19;;;;;;;14.20;7.60;;;2.20;84.80;;;;;;4070114;29;20099;-78
2024/01/30 06:39:20;;;;;;;12.57;7.68;;;2.30;85.00;;;;;;4070215;29;20482;-79
2024/01/30 06:41:22;;;;;;;13.10;7.53;;;2.20;84.60;;;;;;4070017;29;20048;-76
2024/01/30 06:43:24;;;;;;;13.15;7.57;;;2.20;84.40;;;;;;4070266;29;20059;-80
2024/01/30 06:45:26;;;;;;;12.57;7.38;;;2.20;84.70;;;;;;4070444;29;20052;-80
2024/01/30 06:47:28;;;;;;;12.95;7.72;;;2.20;84.90;;;;;;4069958;29;20055;-75
2024/01/30 06:49:31;;;;;;;11.43;7.03;;;2.20;84.80;;;;;;4069809;29;20048;-78
2024/01/30 06:51:33;;;;;;;12.60;7.88;;;2.20;84.80;;;;;;4070009;29;20572;-76
2024/01/30 06:53:35;;;;;;;15.32;7.68;;;2.20;85.20;;;;;;4070306;29;20052;-76
2024/01/30 06:55:37;;;;;;;15.57;8.07;;;2.20;84.80;;;;;;4069557;29;20108;-79
2024/01/30 06:57:37;;;;;;;14.10;8.07;;;2.20;84.50;;;;;;4069701;29;20386;-77
2024/01/30 06:59:43;;;;;;;14.35;7.72;;;2.20;84.30;;;;;;4069785;29;20096;-78
2024/01/30 07:01:44;;;;;;;17.25;7.82;;;2.20;85.10;;;;;;4069401;29;20064;-80
2024/01/30 07:03:47;;;;;;;16.27;7.97;;;2.20;84.40;;;;;;4070014;29;20478;-79
2024/01/30 07:05:49;;;;;;;16.83;8.27;;;2.20;84.40;;;;;;4069914;29;20459;-77
2024/01/30 07:07:51;;;;;;;13.68;8.05;;;2.20;84.40;;;;;;4069724;29;20044;-77
2024/01/30 07:09:56;;;;;;;12.77;7.85;;;2.20;84.40;;;;;;4069821;29;20301;-77
2024/01/30 07:11:59;;;;;;;12.65;7.10;;;2.20;84.50;;;;;;4069805;29;20048;-79
2024/01/30 07:14:03;;;;;;;14.13;7.65;;;2.20;84.50;;;;;;4069744;29;20087;-77
2024/01/30 07:16:04;;;;;;;11.55;7.57;;;2.20;84.60;;;;;;4069627;29;20057;-80
2024/01/30 07:18:07;;;;;;;11.95;7.45;;;2.20;84.60;;;;;;4069537;29;20051;-80
2024/01/30 07:20:10;;;;;;;21.05;8.10;;;2.20;84.70;;;;;;4069662;29;20163;-80
2024/01/30 07:22:13;;;;;;;16.17;8.48;;;2.20;84.70;;;;;;4069542;29;20059;-80
2024/01/30 07:24:14;;;;;;;14.18;7.45;;;2.20;84.90;;;;;;4069361;29;20079;-79
2024/01/30 07:26:16;;;;;;;12.95;6.90;;;2.20;85.00;;;;;;4069478;29;20052;-79
2024/01/30 07:28:18;;;;;;;12.13;7.30;;;2.30;85.00;;;;;;4069485;29;20060;-77
2024/01/30 07:30:19;;;;;;;11.65;6.95;;;2.30;84.70;;;;;;4069517;29;20483;-79
2024/01/30 07:32:21;;;;;;;13.43;7.35;;;2.30;84.00;;;;;;4070825;29;20410;-78
2024/01/30 07:34:23;;;;;;;14.40;7.22;;;2.20;83.80;;;;;;4070427;29;20052;-78
2024/01/30 07:36:24;;;;;;;11.52;7.28;;;2.30;83.80;;;;;;4074263;29;20059;-79
2024/01/30 07:38:28;;;;;;;11.98;7.40;;;2.30;84.20;;;;;;4077758;29;20052;-79
2024/01/30 07:40:29;;;;;;;11.93;7.30;;;2.30;84.10;;;;;;4077120;29;20076;-79
2024/01/30 07:42:31;;;;;;;13.10;7.72;;;2.30;84.20;;;;;;4077324;29;20103;-77
2024/01/30 07:44:33;;;;;;;14.90;7.70;;;2.40;85.00;;;;;;4077551;29;20162;-79
2024/01/30 07:46:35;;;;;;;13.60;7.57;;;2.40;85.10;;;;;;4077189;29;20411;-79
2024/01/30 07:48:37;;;;;;;12.13;7.35;;;2.40;84.50;;;;;;4072308;29;20060;-80
2024/01/30 07:50:39;;;;;;;10.30;6.80;;;2.40;84.50;;;;;;4069615;29;20048;-78
2024/01/30 07:52:40;;;;;;;10.98;7.00;;;2.50;84.60;;;;;;4069290;29;20048;-79
2024/01/30 07:54:43;;;;;;;15.77;8.23;;;2.50;84.40;;;;;;4069418;29;20545;-79
2024/01/30 07:56:45;;;;;;;13.80;7.88;;;2.50;84.50;;;;;;4069304;29;20107;-78
2024/01/30 07:58:46;;;;;;;18.27;8.10;;;2.50;84.50;;;;;;4069473;29;20056;-78
2024/01/30 08:00:47;;;;;;;30.48;9.15;;;2.60;84.60;;;;;;4068969;29;20060;-77
2024/01/30 08:02:49;;;;;;;24.88;8.88;;;2.60;84.60;;;;;;4069814;29;20048;-78
2024/01/30 08:04:51;;;;;;;18.88;8.88;;;2.60;84.50;;;;;;4069425;29;20056;-79
2024/01/30 08:06:53;;;;;;;19.58;8.93;;;2.70;84.50;;;;;;4068984;29;20458;-80
2024/01/30 08:08:55;;;;;;;18.25;8.27;;;2.70;84.50;;;;;;4068911;29;20052;-79
2024/01/30 08:10:58;;;;;;;18.20;8.35;;;2.70;84.50;;;;;;4069078;29;20521;-78
2024/01/30 08:13:00;;;;;;;14.45;7.50;;;2.80;84.20;;;;;;4069151;29;20048;-79
2024/01/30 08:15:03;;;;;;;13.50;7.40;;;2.80;84.00;;;;;;4069149;29;20056;-78
2024/01/30 08:17:05;;;;;;;11.07;7.22;;;2.80;83.90;;;;;;4069096;29;20048;-79
2024/01/30 08:19:07;;;;;;;52.30;10.80;;;2.80;83.90;;;;;;4069247;29;20090;-78
2024/01/30 08:21:09;;;;;;;32.38;8.65;;;2.80;84.00;;;;;;4070453;29;20044;-79
2024/01/30 08:23:11;;;;;;;13.35;7.57;;;2.90;83.90;;;;;;4070883;29;20537;-78
2024/01/30 08:25:11;;;;;;;12.15;7.88;;;2.90;84.00;;;;;;4070476;29;20131;-80
2024/01/30 08:27:15;;;;;;;14.35;7.47;;;2.90;84.00;;;;;;4068745;29;20052;-79
2024/01/30 08:29:16;;;;;;;16.23;8.38;;;2.90;83.90;;;;;;4068942;29;20099;-79
2024/01/30 08:31:18;;;;;;;16.40;8.27;;;3.00;84.00;;;;;;4069190;29;20048;-78
2024/01/30 08:33:19;;;;;;;18.05;8.85;;;3.00;84.10;;;;;;4069066;29;20048;-78
2024/01/30 08:35:21;;;;;;;15.30;8.70;;;3.10;84.30;;;;;;4069050;29;20545;-79
2024/01/30 08:37:23;;;;;;;13.98;8.02;;;3.10;84.30;;;;;;4068799;29;20048;-78
2024/01/30 08:39:25;;;;;;;13.68;7.63;;;3.10;84.20;;;;;;4068727;29;20044;-78
2024/01/30 08:41:26;;;;;;;13.75;7.95;;;3.10;84.10;;;;;;4068734;29;20379;-78
2024/01/30 08:43:29;;;;;;;13.32;6.97;;;3.20;84.00;;;;;;4068737;29;20056;-78
2024/01/30 08:45:31;;;;;;;13.35;7.47;;;3.20;83.70;;;;;;4068674;29;20115;-78
2024/01/30 08:47:33;;;;;;;13.15;7.53;;;3.30;83.70;;;;;;4068698;29;20072;-80
2024/01/30 08:49:35;;;;;;;13.90;7.90;;;3.30;83.80;;;;;;4068469;29;20116;-79
2024/01/30 08:51:36;;;;;;;15.27;8.00;;;3.40;83.70;;;;;;4069092;29;20088;-78
2024/01/30 08:53:38;;;;;;;16.17;8.80;;;3.40;83.50;;;;;;4068678;29;20056;-80
2024/01/30 08:55:40;;;;;;;15.38;8.85;;;3.40;83.60;;;;;;4068573;29;20052;-79
2024/01/30 08:57:42;;;;;;;14.68;8.70;;;3.50;83.60;;;;;;4068983;29;20112;-79
2024/01/30 08:59:46;;;;;;;15.55;8.68;;;3.50;83.40;;;;;;4069019;29;20111;-81
2024/01/30 09:01:48;;;;;;;15.30;8.50;;;3.60;83.60;;;;;;4068612;29;20060;-79
2024/01/30 09:03:50;;;;;;;15.85;9.23;;;3.70;83.50;;;;;;4068716;29;20418;-79
2024/01/30 09:05:52;;;;;;;21.23;9.20;;;3.70;83.30;;;;;;4068656;29;20056;-78
2024/01/30 09:07:53;;;;;;;16.80;9.55;;;3.70;83.40;;;;;;4068696;29;20140;-81
2024/01/30 09:09:54;;;;;;;20.85;9.75;;;3.80;83.30;;;;;;4068092;29;20095;-79
2024/01/30 09:11:58;;;;;;;21.92;11.63;;;3.80;83.40;;;;;;4068567;29;20044;-80
2024/01/30 09:13:59;;;;;;;19.50;10.73;;;3.90;83.50;;;;;;4068557;29;20055;-80
2024/01/30 09:16:03;;;;;;;18.67;10.80;;;4.00;83.40;;;;;;4068697;29;20185;-78
2024/01/30 09:18:05;;;;;;;19.73;10.43;;;4.00;83.20;;;;;;4068165;29;20549;-80
2024/01/30 09:20:09;;;;;;;16.45;10.07;;;4.00;83.60;;;;;;4068377;29;20056;-80
2024/01/30 09:22:10;;;;;;;16.83;9.25;;;4.00;83.50;;;;;;4068463;29;20483;-78
2024/01/30 09:24:12;;;;;;;15.20;9.32;;;4.10;83.70;;;;;;4068559;29;20052;-78
2024/01/30 09:26:13;;;;;;;14.50;9.00;;;4.10;83.70;;;;;;4068546;29;20464;-78
2024/01/30 09:28:15;;;;;;;13.88;8.85;;;4.20;83.10;;;;;;4068442;29;20048;-79
2024/01/30 09:30:18;;;;;;;14.48;9.20;;;4.30;83.10;;;;;;4062717;29;20115;-78
2024/01/30 09:32:21;;;;;;;14.52;9.23;;;4.30;83.00;;;;;;4068618;29;20280;-80
2024/01/30 09:34:23;;;;;;;15.52;8.77;;;4.40;82.80;;;;;;4069080;29;20194;-78
2024/01/30 09:36:25;;;;;;;16.38;9.98;;;4.50;82.90;;;;;;4069251;29;20056;-79
2024/01/30 09:38:27;;;;;;;27.25;11.07;;;4.50;82.50;;;;;;4069063;29;20214;-79
2024/01/30 09:40:29;;;;;;;20.60;11.43;;;4.60;82.30;;;;;;4069210;29;20383;-79
2024/01/30 09:42:35;;;;;;;18.55;11.90;;;4.60;82.10;;;;;;4068817;29;20131;-77
2024/01/30 09:44:38;;;;;;;;;;;4.70;81.70;;;;;;4069622;29;20083;-80
2024/01/30 09:46:40;;;;;;;23.77;12.07;;;4.80;81.50;;;;;;4068889;29;20352;-80
2024/01/30 09:48:44;;;;;;;21.50;12.27;;;4.80;81.20;;;;;;4066934;29;20048;-79
2024/01/30 09:50:47;;;;;;;20.48;12.05;;;4.90;81.30;;;;;;4068770;29;20103;-80
2024/01/30 09:52:49;;;;;;;26.02;12.88;;;4.90;80.90;;;;;;4068753;29;20053;-80
2024/01/30 09:54:52;;;;;;;22.17;12.63;;;5.00;81.10;;;;;;4069063;29;20052;-81
2024/01/30 09:56:53;;;;;;;20.45;12.35;;;5.00;81.00;;;;;;4068946;29;20056;-80
2024/01/30 09:58:55;;;;;;;21.00;11.75;;;5.10;80.60;;;;;;4068737;29;20044;-78
2024/01/30 10:00:57;;;;;;;19.60;12.00;;;5.10;80.20;;;;;;4068419;29;20108;-80
2024/01/30 10:02:59;;;;;;;19.25;11.45;;;5.20;80.00;;;;;;4068687;29;20106;-80
2024/01/30 10:05:03;;;;;;;17.63;11.75;;;5.20;79.60;;;;;;4068442;29;20486;-78
2024/01/30 10:07:05;;;;;;;21.25;11.85;;;5.30;79.50;;;;;;4069085;29;20437;-78
2024/01/30 10:09:08;;;;;;;18.70;10.98;;;5.30;79.20;;;;;;4068772;29;20048;-79
2024/01/30 10:11:09;;;;;;;18.15;10.70;;;5.40;78.90;;;;;;4068699;29;20417;-78
2024/01/30 10:13:12;;;;;;;16.58;10.27;;;5.50;78.70;;;;;;4068489;29;20103;-80
2024/01/30 10:15:15;;;;;;;16.55;9.95;;;5.50;77.70;;;;;;4072763;29;20056;-77
2024/01/30 10:17:17;;;;;;;15.40;9.13;;;5.50;77.60;;;;;;4071994;29;20060;-76
2024/01/30 10:19:19;;;;;;;14.98;9.52;;;5.60;77.10;;;;;;4069812;29;20068;-80
2024/01/30 10:21:22;;;;;;;16.17;9.40;;;5.70;76.90;;;;;;4068903;29;20549;-78
2024/01/30 10:23:23;;;;;;;16.95;9.55;;;5.80;76.90;;;;;;4068827;29;20087;-79
2024/01/30 10:25:26;;;;;;;17.13;9.35;;;5.80;76.80;;;;;;4068612;29;20119;-78
2024/01/30 10:27:29;;;;;;;14.52;9.02;;;5.80;76.90;;;;;;4069005;29;20052;-79
2024/01/30 10:29:31;;;;;;;15.75;9.57;;;5.90;76.50;;;;;;4068222;29;20079;-78
2024/01/30 10:31:33;;;;;;;14.63;8.88;;;6.00;76.10;;;;;;4068149;29;20052;-76
2024/01/30 10:33:35;;;;;;;15.68;9.55;;;6.10;75.40;;;;;;4067948;29;20458;-79
2024/01/30 10:35:36;;;;;;;16.10;9.63;;;6.10;75.80;;;;;;4068299;29;20517;-80
2024/01/30 10:37:39;;;;;;;17.10;9.30;;;6.20;75.70;;;;;;4068176;29;20052;-78
2024/01/30 10:39:41;;;;;;;21.27;11.02;;;6.20;75.70;;;;;;4068243;29;20445;-79
2024/01/30 10:41:44;;;;;;;16.63;10.63;;;6.30;75.70;;;;;;4068030;29;20070;-77
2024/01/30 10:43:58;;;;;;;18.40;10.40;;;6.40;75.60;;;;;;4067738;29;20147;-79
2024/01/30 10:46:10;;;;;;;19.88;11.27;;;6.40;75.40;;;;;;4067970;29;20056;-79
2024/01/30 10:48:13;;;;;;;23.88;11.65;;;6.50;75.50;;;;;;4066136;29;20052;-79
2024/01/30 10:50:16;;;;;;;20.98;11.02;;;6.50;75.30;;;;;;4068308;29;20107;-79
2024/01/30 10:52:18;;;;;;;19.67;11.23;;;6.60;75.30;;;;;;4068307;29;20454;-78
2024/01/30 10:54:21;;;;;;;21.50;13.05;;;6.60;75.40;;;;;;4068101;29;20421;-79
2024/01/30 10:56:24;;;;;;;20.92;12.88;;;6.70;75.40;;;;;;4068132;29;20186;-80
2024/01/30 10:58:27;;;;;;;21.60;12.85;;;6.70;75.30;;;;;;4068129;29;20056;-79
2024/01/30 11:00:28;;;;;;;21.02;12.82;;;6.70;75.20;;;;;;4067396;29;20071;-79
2024/01/30 11:02:31;;;;;;;21.92;12.77;;;6.80;75.60;;;;;;4067919;29;20060;-77
2024/01/30 11:04:36;;;;;;;27.63;13.30;;;6.80;75.30;;;;;;4068017;29;20052;-80
2024/01/30 11:06:42;;;;;;;22.73;13.00;;;6.80;75.10;;;;;;4067886;29;20052;-79
2024/01/30 11:08:44;;;;;;;24.33;12.82;;;6.90;75.10;;;;;;4068377;29;20064;-78
2024/01/30 11:10:48;;;;;;;20.00;13.35;;;7.00;75.20;;;;;;4067768;29;20557;-80
2024/01/30 11:12:51;;;;;;;22.50;14.02;;;7.00;74.70;;;;;;4067853;29;20481;-80
2024/01/30 11:15:04;;;;;;;23.08;14.13;;;7.00;74.80;;;;;;4067727;29;20472;-78
2024/01/30 11:17:07;;;;;;;22.65;13.13;;;7.10;74.50;;;;;;4067628;29;20505;-78
2024/01/30 11:19:12;;;;;;;21.77;13.27;;;7.10;74.40;;;;;;4067849;29;20056;-77
2024/01/30 11:21:15;;;;;;;20.40;13.02;;;7.10;74.20;;;;;;4072344;29;20094;-79
2024/01/30 11:23:17;;;;;;;22.63;13.73;;;7.20;74.00;;;;;;4070657;29;20056;-79
2024/01/30 11:25:21;;;;;;;24.05;14.10;;;7.30;74.30;;;;;;4068833;29;20482;-80
2024/01/30 11:27:24;;;;;;;26.58;13.57;;;7.30;74.10;;;;;;4068144;29;20095;-80
2024/01/30 11:29:28;;;;;;;25.70;14.43;;;7.30;73.90;;;;;;4067333;29;20056;-79
2024/01/30 11:31:30;;;;;;;21.27;13.60;;;7.40;74.00;;;;;;4067528;29;20060;-78
2024/01/30 11:33:32;;;;;;;22.13;14.07;;;7.40;73.70;;;;;;4067423;29;20060;-77
2024/01/30 11:35:37;;;;;;;19.77;13.15;;;7.50;74.30;;;;;;4067315;29;20433;-81
2024/01/30 11:37:39;;;;;;;22.45;13.38;;;7.50;74.40;;;;;;4067261;29;20083;-81
2024/01/30 11:39:42;;;;;;;22.13;12.73;;;7.50;75.00;;;;;;4067315;29;20056;-80
2024/01/30 11:41:46;;;;;;;17.95;10.40;;;7.50;75.10;;;;;;4067096;29;20052;-80
2024/01/30 11:43:54;;;;;;;21.38;10.70;;;7.50;74.40;;;;;;4067193;29;20505;-80
2024/01/30 11:45:56;;;;;;;20.63;10.43;;;7.50;73.70;;;;;;4067600;29;20047;-80
2024/01/30 11:48:00;;;;;;;19.10;10.80;;;7.50;73.30;;;;;;4065404;29;20052;-80
2024/01/30 11:50:03;;;;;;;17.98;8.80;;;7.60;73.50;;;;;;4067313;29;20123;-76
2024/01/30 11:52:06;;;;;;;12.20;8.10;;;7.60;73.50;;;;;;4067512;29;20469;-82
2024/01/30 11:54:08;;;;;;;12.30;7.65;;;7.70;72.20;;;;;;4066917;29;20048;-77
2024/01/30 11:56:13;;;;;;;12.30;7.57;;;7.90;70.80;;;;;;4066864;29;20516;-81
2024/01/30 11:58:14;;;;;;;13.65;7.07;;;8.00;71.00;;;;;;4067177;29;20060;-80
2024/01/30 12:00:20;;;;;;;11.73;7.30;;;8.10;69.20;;;;;;4066786;29;20044;-81
2024/01/30 12:02:22;;;;;;;11.32;8.70;;;8.20;68.70;;;;;;4066950;29;20088;-80
2024/01/30 12:04:24;;;;;;;16.67;8.68;;;8.20;69.60;;;;;;4067261;29;20111;-80
2024/01/30 12:06:26;;;;;;;13.48;8.32;;;8.30;69.60;;;;;;4066388;29;20416;-80
2024/01/30 12:08:28;;;;;;;18.23;9.32;;;8.40;69.20;;;;;;4068074;29;20099;-79
2024/01/30 12:10:30;;;;;;;13.43;7.43;;;8.40;69.70;;;;;;4069153;29;20052;-81
2024/01/30 12:12:32;;;;;;;12.45;7.28;;;8.50;68.80;;;;;;4067789;29;20063;-80
2024/01/30 12:14:36;;;;;;;10.82;5.70;;;8.60;66.50;;;;;;4067334;29;20067;-83
2024/01/30 12:16:38;;;;;;;11.98;6.35;;;8.60;65.10;;;;;;4066880;29;20115;-80
2024/01/30 12:18:40;;;;;;;17.98;10.48;;;8.70;64.30;;;;;;4066974;29;20395;-82
2024/01/30 12:20:42;;;;;;;17.73;10.18;;;8.70;66.00;;;;;;4067237;29;20051;-82
2024/01/30 12:22:46;;;;;;;23.90;13.65;;;8.80;66.90;;;;;;4066795;29;20047;-81
2024/01/30 12:24:48;;;;;;;20.73;13.05;;;8.90;68.10;;;;;;4069298;29;20052;-80
2024/01/30 12:26:50;;;;;;;23.65;13.65;;;8.90;68.00;;;;;;4066712;29;20845;-80
2024/01/30 12:28:55;;;;;;;19.58;9.93;;;8.90;68.30;;;;;;4067478;29;20059;-81
2024/01/30 12:30:58;;;;;;;20.20;11.60;;;9.00;67.30;;;;;;4066906;29;20051;-82
2024/01/30 12:33:04;;;;;;;19.55;10.85;;;9.00;67.20;;;;;;4066999;29;20059;-79
2024/01/30 12:35:09;;;;;;;16.63;10.30;;;9.10;66.80;;;;;;4066547;29;20462;-80
2024/01/30 12:37:11;;;;;;;18.35;10.68;;;9.10;66.90;;;;;;4066841;29;20099;-79
2024/01/30 12:39:14;;;;;;;13.30;7.53;;;9.20;66.00;;;;;;4066523;29;20052;-81
2024/01/30 12:41:16;;;;;;;25.75;14.32;;;9.20;64.60;;;;;;4065450;29;20060;-81
2024/01/30 12:43:18;;;;;;;22.17;12.38;;;9.30;64.40;;;;;;4066908;29;20123;-79
2024/01/30 12:45:21;;;;;;;13.15;6.85;;;9.30;62.70;;;;;;4066718;29;20462;-79
2024/01/30 12:47:23;;;;;;;27.20;15.27;;;9.40;62.20;;;;;;4064761;29;20406;-81
2024/01/30 12:49:26;;;;;;;19.88;10.73;;;9.50;63.40;;;;;;4066715;29;20589;-80
2024/01/30 12:51:28;;;;;;;19.88;10.65;;;9.60;63.50;;;;;;4066481;29;20063;-78
2024/01/30 12:53:30;;;;;;;19.85;10.57;;;9.70;64.20;;;;;;4066497;29;20048;-80
2024/01/30 12:55:32;;;;;;;18.63;9.65;;;9.80;63.40;;;;;;4066362;29;20072;-79
2024/01/30 12:57:33;;;;;;;15.65;7.70;;;9.90;63.10;;;;;;4066594;29;20052;-79
2024/01/30 12:59:35;;;;;;;11.27;5.90;;;10.00;60.80;;;;;;4066519;29;20054;-80
2024/01/30 13:01:37;;;;;;;11.23;6.38;;;10.20;59.10;;;;;;4066378;29;20088;-81
2024/01/30 13:03:39;;;;;;;10.88;5.70;;;10.40;59.20;;;;;;4066521;29;20111;-82
2024/01/30 13:05:41;;;;;;;10.40;5.07;;;10.60;58.50;;;;;;4066375;29;20052;-79
2024/01/30 13:07:43;;;;;;;9.68;5.60;;;10.90;57.00;;;;;;4069737;29;20119;-81
2024/01/30 13:09:45;;;;;;;11.00;5.65;;;11.20;56.90;;;;;;4070604;29;20080;-79
2024/01/30 13:11:47;;;;;;;9.90;5.13;;;11.40;56.90;;;;;;4070515;29;20051;-81
2024/01/30 13:13:49;;;;;;;10.38;5.15;;;11.60;56.90;;;;;;4069299;29;20060;-80
2024/01/30 13:15:51;;;;;;;11.13;5.35;;;11.90;56.10;;;;;;4069324;29;20052;-79
2024/01/30 13:17:54;;;;;;;9.98;5.25;;;12.30;54.80;;;;;;4068980;29;20099;-78
2024/01/30 13:19:56;;;;;;;8.27;4.60;;;12.60;53.90;;;;;;4068084;29;20056;-78
2024/01/30 13:21:59;;;;;;;9.10;4.50;;;12.80;51.80;;;;;;4069471;29;20435;-78
2024/01/30 13:24:00;;;;;;;9.40;4.50;;;13.30;52.20;;;;;;4069625;29;20123;-78
2024/01/30 13:26:02;;;;;;;6.70;3.83;;;15.10;49.50;;;;;;4070240;29;20052;-79
2024/01/30 13:28:05;;;;;;;8.70;4.28;;;15.80;45.60;;;;;;4069313;29;20055;-78
2024/01/30 13:30:09;;;;;;;7.93;3.78;;;16.10;43.60;;;;;;4069267;29;20056;-79
2024/01/30 13:32:11;;;;;;;6.63;3.58;;;16.30;43.30;;;;;;4069559;29;20080;-80
2024/01/30 13:34:14;;;;;;;8.27;3.80;;;15.50;42.50;;;;;;4069441;29;20446;-80
2024/01/30 13:36:16;;;;;;;9.27;3.92;;;14.80;44.30;;;;;;4069584;29;20060;-81
2024/01/30 13:38:19;;;;;;;8.48;3.72;;;14.20;45.50;;;;;;4069224;29;20065;-79
2024/01/30 13:40:22;;;;;;;6.93;4.05;;;13.80;46.50;;;;;;4069322;29;20115;-79
2024/01/30 13:42:24;;;;;;;7.68;3.70;;;13.50;46.60;;;;;;4083430;29;20098;-80
2024/01/30 13:44:25;;;;;;;6.38;3.80;;;13.40;46.70;;;;;;4069130;29;20111;-80
2024/01/30 13:46:28;;;;;;;6.82;3.38;;;13.30;47.20;;;;;;4068871;29;20080;-79
2024/01/30 13:48:30;;;;;;;40.45;19.27;;;13.10;47.60;;;;;;4067108;29;20450;-79
2024/01/30 13:50:33;;;;;;;16.52;7.78;;;12.90;47.70;;;;;;4069125;29;20087;-81
2024/01/30 13:52:35;;;;;;;14.93;7.10;;;12.80;48.20;;;;;;4069019;29;20054;-79
2024/01/30 13:54:38;;;;;;;9.32;4.60;;;12.80;48.60;;;;;;4068831;29;20545;-80
2024/01/30 13:56:41;;;;;;;8.23;3.67;;;12.60;48.70;;;;;;4069049;29;20147;-80
2024/01/30 13:58:42;;;;;;;7.35;3.92;;;12.50;48.80;;;;;;4068869;29;20063;-80
2024/01/30 14:00:44;;;;;;;9.73;4.00;;;12.50;49.40;;;;;;4068848;29;20068;-80
2024/01/30 14:02:45;;;;;;;6.00;3.47;;;12.50;49.30;;;;;;4068754;29;20144;-80
2024/01/30 14:04:47;;;;;;;7.05;3.85;;;12.50;49.30;;;;;;4068459;29;20470;-81
2024/01/30 14:06:49;;;;;;;6.82;3.65;;;12.50;49.40;;;;;;4068900;29;20508;-79
2024/01/30 14:08:51;;;;;;;6.13;3.53;;;12.50;49.30;;;;;;4068794;29;20108;-80
2024/01/30 14:10:56;;;;;;;7.05;3.53;;;12.40;49.30;;;;;;4068696;29;20048;-78
2024/01/30 14:12:57;;;;;;;6.15;3.33;;;12.50;49.60;;;;;;4069552;29;20509;-78
2024/01/30 14:14:59;;;;;;;7.68;3.33;;;12.50;49.40;;;;;;4071038;29;20064;-77
2024/01/30 14:17:01;;;;;;;6.30;3.38;;;12.50;49.50;;;;;;4068359;29;20056;-79
2024/01/30 14:19:03;;;;;;;5.78;3.15;;;12.50;49.70;;;;;;4069285;29;20414;-79
2024/01/30 14:21:06;;;;;;;6.10;3.15;;;12.50;49.10;;;;;;4076398;29;20048;-79
2024/01/30 14:23:08;;;;;;;7.90;3.30;;;12.60;49.00;;;;;;4077668;29;20063;-80
2024/01/30 14:25:10;;;;;;;5.97;3.33;;;12.60;49.20;;;;;;4078889;29;20469;-79
2024/01/30 14:27:13;;;;;;;8.25;3.58;;;12.50;49.10;;;;;;4079920;29;20044;-78
2024/01/30 14:29:15;;;;;;;6.68;3.30;;;12.50;49.50;;;;;;4075037;29;20081;-82
2024/01/30 14:31:18;;;;;;;6.80;3.72;;;12.50;49.30;;;;;;4068904;29;20554;-80
2024/01/30 14:33:20;;;;;;;7.43;3.10;;;12.50;49.30;;;;;;4068292;29;20052;-79
2024/01/30 14:35:22;;;;;;;6.75;3.30;;;12.40;49.40;;;;;;4068737;29;20553;-78
2024/01/30 14:37:23;;;;;;;6.55;3.33;;;12.40;49.30;;;;;;4068274;29;20103;-79
2024/01/30 14:39:25;;;;;;;4.95;2.97;;;12.70;49.20;;;;;;4068290;29;20490;-80
2024/01/30 14:41:27;;;;;;;5.10;2.90;;;13.40;48.00;;;;;;4067906;29;20123;-78
2024/01/30 14:43:30;;;;;;;8.10;2.90;;;13.60;46.90;;;;;;4068146;29;20056;-78
2024/01/30 14:45:32;;;;;;;6.22;3.05;;;13.80;47.20;;;;;;4068353;29;20107;-79
2024/01/30 14:47:35;;;;;;;4.85;2.88;;;13.80;46.60;;;;;;4066260;29;20467;-80
2024/01/30 14:49:37;;;;;;;7.35;3.10;;;13.80;46.40;;;;;;4068050;29;20066;-80
2024/01/30 14:51:38;;;;;;;10.98;7.22;;;13.70;46.90;;;;;;4068405;29;20088;-78
2024/01/30 14:53:40;;;;;;;14.35;9.32;;;13.70;46.90;;;;;;4068016;29;20059;-76
2024/01/30 14:55:42;;;;;;;6.32;3.67;;;13.60;46.80;;;;;;4067980;29;20052;-79
2024/01/30 14:57:45;;;;;;;7.05;3.38;;;13.50;47.10;;;;;;4067972;29;20458;-78
2024/01/30 14:59:48;;;;;;;5.43;3.10;;;13.30;47.30;;;;;;4068086;29;20055;-78
2024/01/30 15:01:50;;;;;;;5.20;2.97;;;13.00;47.70;;;;;;4067630;29;20056;-79
2024/01/30 15:03:52;;;;;;;7.93;3.17;;;12.90;47.80;;;;;;4067269;29;20059;-80
2024/01/30 15:05:54;;;;;;;6.13;3.17;;;12.80;48.00;;;;;;4067758;29;20052;-79
2024/01/30 15:07:56;;;;;;;6.80;3.05;;;12.70;48.60;;;;;;4067806;29;20221;-79
2024/01/30 15:09:57;;;;;;;5.95;3.20;;;12.70;48.90;;;;;;4067656;29;20055;-79
2024/01/30 15:11:59;;;;;;;6.95;3.45;;;12.60;49.00;;;;;;4066330;29;20553;-79
2024/01/30 15:14:00;;;;;;;6.55;3.55;;;12.60;49.30;;;;;;4067726;29;20391;-79
2024/01/30 15:16:05;;;;;;;10.77;3.20;;;12.50;49.40;;;;;;4067910;29;20048;-78
2024/01/30 15:18:10;;;;;;;6.25;3.22;;;12.40;49.40;;;;;;4067709;29;20474;-76
2024/01/30 15:20:12;;;;;;;6.90;3.70;;;12.30;49.80;;;;;;4067669;29;20132;-77
2024/01/30 15:22:13;;;;;;;7.30;3.03;;;12.30;49.80;;;;;;4067419;29;20458;-79
2024/01/30 15:24:17;;;;;;;7.05;3.55;;;12.30;50.20;;;;;;4067731;29;20056;-77
2024/01/30 15:26:19;;;;;;;13.18;4.90;;;12.20;50.30;;;;;;4067638;29;20052;-78
2024/01/30 15:28:35;;;;;;;7.57;3.58;;;12.10;51.30;;;;;;4067515;29;20052;-78
2024/01/30 15:30:37;;;;;;;6.55;3.58;;;12.10;51.90;;;;;;4066196;29;20094;-78
2024/01/30 15:32:41;;;;;;;9.50;3.40;;;12.00;52.50;;;;;;4067579;29;20064;-79
2024/01/30 15:34:42;;;;;;;7.93;3.83;;;11.90;52.60;;;;;;4067443;29;20104;-79
2024/01/30 15:36:43;;;;;;;11.75;4.40;;;11.90;53.30;;;;;;4066190;29;20056;-80
2024/01/30 15:38:45;;;;;;;8.75;4.32;;;11.80;54.00;;;;;;4066925;29;20119;-82
2024/01/30 15:40:48;;;;;;;8.93;4.68;;;11.80;54.70;;;;;;4067026;29;20095;-78
2024/01/30 15:42:50;;;;;;;8.10;4.32;;;11.80;54.90;;;;;;4067530;29;20052;-77
2024/01/30 15:44:52;;;;;;;7.70;4.47;;;11.70;54.90;;;;;;4067181;29;20063;-77
2024/01/30 15:46:54;;;;;;;10.95;5.25;;;11.60;55.20;;;;;;4065445;29;20060;-79
2024/01/30 15:48:57;;;;;;;9.32;4.90;;;11.50;55.60;;;;;;4066952;29;20044;-79
2024/01/30 15:51:00;;;;;;;12.93;7.82;;;11.50;55.80;;;;;;4067066;29;20052;-80
2024/01/30 15:53:02;;;;;;;12.68;6.93;;;11.40;56.10;;;;;;4066663;29;20135;-79
2024/01/30 15:55:04;;;;;;;12.32;6.97;;;11.40;56.40;;;;;;4066938;29;20063;-79
2024/01/30 15:57:06;;;;;;;11.30;6.00;;;11.30;56.50;;;;;;4066386;29;20060;-79
2024/01/30 15:59:08;;;;;;;9.85;5.45;;;11.20;56.50;;;;;;4066850;29;20076;-78
2024/01/30 16:01:10;;;;;;;12.15;5.70;;;11.20;56.70;;;;;;4066781;29;20063;-80
2024/01/30 16:03:12;;;;;;;9.98;5.60;;;11.20;56.80;;;;;;4066923;29;20052;-78
2024/01/30 16:05:15;;;;;;;11.43;5.28;;;11.10;57.10;;;;;;4066620;29;20064;-80
2024/01/30 16:07:17;;;;;;;12.55;5.68;;;11.00;57.20;;;;;;4066920;29;20063;-81
2024/01/30 16:09:19;;;;;;;13.07;5.85;;;11.00;57.30;;;;;;4065054;29;20111;-79
2024/01/30 16:11:21;;;;;;;13.32;7.03;;;10.90;57.60;;;;;;4062163;29;20557;-77
2024/01/30 16:13:23;;;;;;;10.75;5.97;;;10.90;57.80;;;;;;4057543;29;20499;-79
2024/01/30 16:15:25;;;;;;;16.67;9.82;;;10.90;57.90;;;;;;4063033;29;20127;-80
2024/01/30 16:17:27;;;;;;;13.68;7.28;;;10.80;57.90;;;;;;4054165;29;20080;-78
2024/01/30 16:19:28;;;;;;;12.90;6.95;;;10.80;58.20;;;;;;4054986;29;20111;-80
2024/01/30 16:21:31;;;;;;;13.18;6.90;;;10.80;58.40;;;;;;4061214;29;20087;-78
2024/01/30 16:23:33;;;;;;;11.88;6.38;;;10.80;58.70;;;;;;4053797;29;20052;-81
2024/01/30 16:25:35;;;;;;;15.98;6.93;;;10.70;59.20;;;;;;4052708;29;20463;-79
2024/01/30 16:27:37;;;;;;;11.05;6.25;;;10.70;59.10;;;;;;4060985;29;20048;-78
2024/01/30 16:29:39;;;;;;;13.13;7.07;;;10.70;59.60;;;;;;4051256;29;20490;-79
2024/01/30 16:31:40;;;;;;;15.32;7.28;;;10.60;59.50;;;;;;4058167;29;20048;-78
2024/01/30 16:33:42;;;;;;;14.50;7.57;;;10.60;59.70;;;;;;4058375;29;20060;-81